sensor_id;sensor_type;location;lat;lon;timestamp;P1;durP1;ratioP1;P2;durP2;ratioP2
1402;SDS011;696;48.546;9.896;2022-11-15T00:00:13;2.15;;;1.63;;
1402;SDS011;696;48.546;9.896;2022-11-15T00:02:38;4.63;;;2.63;;
1402;SDS011;696;48.546;9.896;2022-11-15T00:05:04;6.07;;;2.25;;
1402;SDS011;696;48.546;9.896;2022-11-15T00:07:29;3.25;;;2.10;;
1402;SDS011;696;48.546;9.896;2022-11-15T00:09:55;3.38;;;2.05;;
1402;SDS011;696;48.546;9.896;2022-11-15T00:12:20;2.80;;;1.92;;
1402;SDS011;696;48.546;9.896;2022-11-15T00:14:45;6.53;;;2.63;;
1402;SDS011;696;48.546;9.896;2022-11-15T00:17:10;2.95;;;2.33;;
1402;SDS011;696;48.546;9.896;2022-11-15T00:19:36;3.30;;;2.03;;
1402;SDS011;696;48.546;9.896;2022-11-15T00:22:01;3.25;;;2.20;;
1402;SDS011;696;48.546;9.896;2022-11-15T00:24:27;3.05;;;2.13;;
1402;SDS011;696;48.546;9.896;2022-11-15T00:26:52;4.95;;;3.08;;
1402;SDS011;696;48.546;9.896;2022-11-15T00:29:17;5.15;;;2.80;;
1402;SDS011;696;48.546;9.896;2022-11-15T00:31:43;5.10;;;2.83;;
1402;SDS011;696;48.546;9.896;2022-11-15T00:34:09;4.50;;;2.80;;
1402;SDS011;696;48.546;9.896;2022-11-15T00:36:34;6.32;;;2.83;;
1402;SDS011;696;48.546;9.896;2022-11-15T00:39:00;3.88;;;2.35;;
1402;SDS011;696;48.546;9.896;2022-11-15T00:41:25;3.63;;;2.38;;
1402;SDS011;696;48.546;9.896;2022-11-15T00:43:50;5.53;;;2.55;;
1402;SDS011;696;48.546;9.896;2022-11-15T00:46:16;2.75;;;1.90;;
1402;SDS011;696;48.546;9.896;2022-11-15T00:48:41;3.63;;;2.08;;
1402;SDS011;696;48.546;9.896;2022-11-15T00:51:07;2.55;;;1.98;;
1402;SDS011;696;48.546;9.896;2022-11-15T00:53:32;3.00;;;2.13;;
1402;SDS011;696;48.546;9.896;2022-11-15T00:55:58;3.80;;;2.70;;
1402;SDS011;696;48.546;9.896;2022-11-15T00:58:23;4.93;;;2.67;;
1402;SDS011;696;48.546;9.896;2022-11-15T01:00:48;4.70;;;2.80;;
1402;SDS011;696;48.546;9.896;2022-11-15T01:03:14;4.85;;;2.80;;
1402;SDS011;696;48.546;9.896;2022-11-15T01:05:40;4.68;;;2.70;;
1402;SDS011;696;48.546;9.896;2022-11-15T01:08:05;6.47;;;2.88;;
1402;SDS011;696;48.546;9.896;2022-11-15T01:10:31;3.50;;;2.67;;
1402;SDS011;696;48.546;9.896;2022-11-15T01:12:56;3.70;;;2.78;;
1402;SDS011;696;48.546;9.896;2022-11-15T01:15:22;5.28;;;2.72;;
1402;SDS011;696;48.546;9.896;2022-11-15T01:17:47;3.70;;;2.47;;
1402;SDS011;696;48.546;9.896;2022-11-15T01:20:12;3.15;;;2.30;;
1402;SDS011;696;48.546;9.896;2022-11-15T01:22:38;2.58;;;2.08;;
1402;SDS011;696;48.546;9.896;2022-11-15T01:25:03;4.20;;;2.30;;
1402;SDS011;696;48.546;9.896;2022-11-15T01:27:29;4.35;;;2.40;;
1402;SDS011;696;48.546;9.896;2022-11-15T01:29:54;8.00;;;3.05;;
1402;SDS011;696;48.546;9.896;2022-11-15T01:32:19;2.80;;;2.28;;
1402;SDS011;696;48.546;9.896;2022-11-15T01:34:45;5.18;;;2.80;;
1402;SDS011;696;48.546;9.896;2022-11-15T01:37:10;3.78;;;2.47;;
1402;SDS011;696;48.546;9.896;2022-11-15T01:39:35;4.18;;;2.05;;
1402;SDS011;696;48.546;9.896;2022-11-15T01:42:01;2.47;;;1.90;;
1402;SDS011;696;48.546;9.896;2022-11-15T01:47:19;3.58;;;2.15;;
1402;SDS011;696;48.546;9.896;2022-11-15T01:49:59;5.40;;;2.10;;
1402;SDS011;696;48.546;9.896;2022-11-15T01:52:28;2.55;;;2.13;;
1402;SDS011;696;48.546;9.896;2022-11-15T01:54:57;3.67;;;2.40;;
1402;SDS011;696;48.546;9.896;2022-11-15T01:57:26;6.15;;;2.50;;
1402;SDS011;696;48.546;9.896;2022-11-15T01:59:51;12.80;;;2.65;;
1402;SDS011;696;48.546;9.896;2022-11-15T02:02:17;3.20;;;2.42;;
1402;SDS011;696;48.546;9.896;2022-11-15T02:04:43;2.90;;;2.13;;
1402;SDS011;696;48.546;9.896;2022-11-15T02:07:11;5.45;;;2.78;;
1402;SDS011;696;48.546;9.896;2022-11-15T02:09:38;5.78;;;2.63;;
1402;SDS011;696;48.546;9.896;2022-11-15T02:12:04;2.67;;;2.20;;
1402;SDS011;696;48.546;9.896;2022-11-15T02:14:31;3.72;;;2.38;;
1402;SDS011;696;48.546;9.896;2022-11-15T02:22:01;3.03;;;2.30;;
1402;SDS011;696;48.546;9.896;2022-11-15T02:28:03;4.18;;;2.13;;
1402;SDS011;696;48.546;9.896;2022-11-15T02:33:13;2.92;;;2.10;;
1402;SDS011;696;48.546;9.896;2022-11-15T02:41:34;4.28;;;2.65;;
1402;SDS011;696;48.546;9.896;2022-11-15T02:44:08;3.38;;;2.25;;
1402;SDS011;696;48.546;9.896;2022-11-15T02:46:40;3.22;;;2.22;;
1402;SDS011;696;48.546;9.896;2022-11-15T02:49:28;2.72;;;2.22;;
1402;SDS011;696;48.546;9.896;2022-11-15T02:51:55;4.22;;;2.60;;
1402;SDS011;696;48.546;9.896;2022-11-15T02:54:31;3.10;;;2.17;;
1402;SDS011;696;48.546;9.896;2022-11-15T02:57:04;7.00;;;2.55;;
1402;SDS011;696;48.546;9.896;2022-11-15T03:10:36;3.22;;;2.53;;
1402;SDS011;696;48.546;9.896;2022-11-15T03:18:32;2.25;;;2.05;;
1402;SDS011;696;48.546;9.896;2022-11-15T03:20:59;4.97;;;2.40;;
1402;SDS011;696;48.546;9.896;2022-11-15T03:23:26;4.45;;;2.65;;
1402;SDS011;696;48.546;9.896;2022-11-15T03:25:54;2.95;;;2.60;;
1402;SDS011;696;48.546;9.896;2022-11-15T03:28:21;2.78;;;2.25;;
1402;SDS011;696;48.546;9.896;2022-11-15T03:30:49;3.42;;;2.42;;
1402;SDS011;696;48.546;9.896;2022-11-15T03:33:15;3.75;;;2.47;;
1402;SDS011;696;48.546;9.896;2022-11-15T03:35:42;3.70;;;2.42;;
1402;SDS011;696;48.546;9.896;2022-11-15T03:38:11;4.97;;;2.70;;
1402;SDS011;696;48.546;9.896;2022-11-15T03:41:04;3.33;;;2.53;;
1402;SDS011;696;48.546;9.896;2022-11-15T03:46:32;5.15;;;2.33;;
1402;SDS011;696;48.546;9.896;2022-11-15T03:49:15;4.72;;;2.80;;
1402;SDS011;696;48.546;9.896;2022-11-15T03:51:44;2.42;;;2.05;;
1402;SDS011;696;48.546;9.896;2022-11-15T03:54:10;7.82;;;2.33;;
1402;SDS011;696;48.546;9.896;2022-11-15T03:56:37;2.55;;;2.00;;
1402;SDS011;696;48.546;9.896;2022-11-15T03:59:02;2.58;;;2.28;;
1402;SDS011;696;48.546;9.896;2022-11-15T04:01:27;6.22;;;2.17;;
1402;SDS011;696;48.546;9.896;2022-11-15T04:03:53;3.22;;;2.13;;
1402;SDS011;696;48.546;9.896;2022-11-15T04:06:18;3.83;;;2.30;;
1402;SDS011;696;48.546;9.896;2022-11-15T04:08:43;3.28;;;2.00;;
1402;SDS011;696;48.546;9.896;2022-11-15T04:11:09;3.08;;;2.28;;
1402;SDS011;696;48.546;9.896;2022-11-15T04:13:34;3.90;;;2.42;;
1402;SDS011;696;48.546;9.896;2022-11-15T04:15:59;4.03;;;3.28;;
1402;SDS011;696;48.546;9.896;2022-11-15T04:18:25;6.47;;;3.20;;
1402;SDS011;696;48.546;9.896;2022-11-15T04:20:50;5.95;;;3.42;;
1402;SDS011;696;48.546;9.896;2022-11-15T04:26:31;9.50;;;3.92;;
1402;SDS011;696;48.546;9.896;2022-11-15T04:28:57;5.32;;;3.63;;
1402;SDS011;696;48.546;9.896;2022-11-15T04:31:41;4.20;;;3.38;;
1402;SDS011;696;48.546;9.896;2022-11-15T04:34:06;3.90;;;3.40;;
1402;SDS011;696;48.546;9.896;2022-11-15T04:36:32;4.07;;;2.90;;
1402;SDS011;696;48.546;9.896;2022-11-15T04:39:16;3.65;;;3.05;;
1402;SDS011;696;48.546;9.896;2022-11-15T04:41:41;5.10;;;3.60;;
1402;SDS011;696;48.546;9.896;2022-11-15T04:44:06;4.68;;;3.03;;
1402;SDS011;696;48.546;9.896;2022-11-15T04:46:32;6.53;;;3.58;;
1402;SDS011;696;48.546;9.896;2022-11-15T04:48:57;6.03;;;3.28;;
1402;SDS011;696;48.546;9.896;2022-11-15T04:51:23;5.22;;;3.25;;
1402;SDS011;696;48.546;9.896;2022-11-15T04:53:48;7.47;;;3.45;;
1402;SDS011;696;48.546;9.896;2022-11-15T04:56:13;5.90;;;3.95;;
1402;SDS011;696;48.546;9.896;2022-11-15T04:58:39;6.38;;;3.40;;
1402;SDS011;696;48.546;9.896;2022-11-15T05:01:11;8.63;;;2.88;;
1402;SDS011;696;48.546;9.896;2022-11-15T05:03:39;3.22;;;2.70;;
1402;SDS011;696;48.546;9.896;2022-11-15T05:06:22;5.57;;;2.90;;
1402;SDS011;696;48.546;9.896;2022-11-15T05:08:48;4.35;;;3.10;;
1402;SDS011;696;48.546;9.896;2022-11-15T05:11:13;4.97;;;3.30;;
1402;SDS011;696;48.546;9.896;2022-11-15T05:13:38;7.43;;;3.75;;
1402;SDS011;696;48.546;9.896;2022-11-15T05:16:04;6.35;;;3.28;;
1402;SDS011;696;48.546;9.896;2022-11-15T05:18:29;6.20;;;3.40;;
1402;SDS011;696;48.546;9.896;2022-11-15T05:20:55;4.47;;;3.33;;
1402;SDS011;696;48.546;9.896;2022-11-15T05:23:20;6.47;;;3.47;;
1402;SDS011;696;48.546;9.896;2022-11-15T05:25:45;3.42;;;3.03;;
1402;SDS011;696;48.546;9.896;2022-11-15T05:28:11;4.68;;;3.45;;
1402;SDS011;696;48.546;9.896;2022-11-15T05:30:36;4.07;;;3.38;;
1402;SDS011;696;48.546;9.896;2022-11-15T05:33:01;4.80;;;3.53;;
1402;SDS011;696;48.546;9.896;2022-11-15T05:38:05;4.82;;;3.50;;
1402;SDS011;696;48.546;9.896;2022-11-15T05:40:30;4.38;;;3.17;;
1402;SDS011;696;48.546;9.896;2022-11-15T05:42:56;4.95;;;2.95;;
1402;SDS011;696;48.546;9.896;2022-11-15T05:45:22;7.63;;;3.05;;
1402;SDS011;696;48.546;9.896;2022-11-15T05:47:48;9.27;;;3.63;;
1402;SDS011;696;48.546;9.896;2022-11-15T05:50:15;4.10;;;3.33;;
1402;SDS011;696;48.546;9.896;2022-11-15T05:52:41;7.32;;;5.28;;
1402;SDS011;696;48.546;9.896;2022-11-15T05:55:07;8.68;;;5.93;;
1402;SDS011;696;48.546;9.896;2022-11-15T05:57:33;13.55;;;7.00;;
1402;SDS011;696;48.546;9.896;2022-11-15T05:59:59;11.10;;;6.38;;
1402;SDS011;696;48.546;9.896;2022-11-15T06:02:24;7.75;;;5.13;;
1402;SDS011;696;48.546;9.896;2022-11-15T06:04:50;10.10;;;4.60;;
1402;SDS011;696;48.546;9.896;2022-11-15T06:07:15;11.52;;;5.65;;
1402;SDS011;696;48.546;9.896;2022-11-15T06:09:40;6.82;;;4.63;;
1402;SDS011;696;48.546;9.896;2022-11-15T06:12:06;9.25;;;4.78;;
1402;SDS011;696;48.546;9.896;2022-11-15T06:14:31;9.60;;;5.03;;
1402;SDS011;696;48.546;9.896;2022-11-15T06:16:56;6.43;;;4.63;;
1402;SDS011;696;48.546;9.896;2022-11-15T06:19:22;5.47;;;4.13;;
1402;SDS011;696;48.546;9.896;2022-11-15T06:21:47;6.40;;;3.85;;
1402;SDS011;696;48.546;9.896;2022-11-15T06:24:12;8.45;;;5.10;;
1402;SDS011;696;48.546;9.896;2022-11-15T06:26:38;7.32;;;4.32;;
1402;SDS011;696;48.546;9.896;2022-11-15T06:29:03;9.13;;;4.38;;
1402;SDS011;696;48.546;9.896;2022-11-15T06:31:29;9.30;;;4.68;;
1402;SDS011;696;48.546;9.896;2022-11-15T06:33:54;7.18;;;4.53;;
1402;SDS011;696;48.546;9.896;2022-11-15T06:36:20;5.93;;;4.00;;
1402;SDS011;696;48.546;9.896;2022-11-15T06:38:45;10.60;;;4.65;;
1402;SDS011;696;48.546;9.896;2022-11-15T06:41:11;6.75;;;4.63;;
1402;SDS011;696;48.546;9.896;2022-11-15T06:43:39;6.70;;;3.97;;
1402;SDS011;696;48.546;9.896;2022-11-15T06:46:05;6.95;;;3.97;;
1402;SDS011;696;48.546;9.896;2022-11-15T06:48:31;7.28;;;4.43;;
1402;SDS011;696;48.546;9.896;2022-11-15T06:50:58;12.02;;;4.25;;
1402;SDS011;696;48.546;9.896;2022-11-15T06:53:24;6.45;;;4.75;;
1402;SDS011;696;48.546;9.896;2022-11-15T06:55:50;5.78;;;3.97;;
1402;SDS011;696;48.546;9.896;2022-11-15T06:58:15;6.45;;;3.95;;
1402;SDS011;696;48.546;9.896;2022-11-15T07:00:41;6.93;;;4.28;;
1402;SDS011;696;48.546;9.896;2022-11-15T07:03:06;5.32;;;4.13;;
1402;SDS011;696;48.546;9.896;2022-11-15T07:05:32;7.30;;;4.28;;
1402;SDS011;696;48.546;9.896;2022-11-15T07:07:58;13.68;;;4.35;;
1402;SDS011;696;48.546;9.896;2022-11-15T07:10:24;5.15;;;3.70;;
1402;SDS011;696;48.546;9.896;2022-11-15T07:12:50;5.13;;;4.07;;
1402;SDS011;696;48.546;9.896;2022-11-15T07:15:16;6.55;;;3.95;;
1402;SDS011;696;48.546;9.896;2022-11-15T07:17:44;5.18;;;3.92;;
1402;SDS011;696;48.546;9.896;2022-11-15T07:20:10;5.25;;;3.80;;
1402;SDS011;696;48.546;9.896;2022-11-15T07:22:36;7.00;;;4.13;;
1402;SDS011;696;48.546;9.896;2022-11-15T07:25:01;7.57;;;4.78;;
1402;SDS011;696;48.546;9.896;2022-11-15T07:27:27;6.28;;;4.40;;
1402;SDS011;696;48.546;9.896;2022-11-15T07:29:52;4.63;;;4.07;;
1402;SDS011;696;48.546;9.896;2022-11-15T07:32:18;10.57;;;3.90;;
1402;SDS011;696;48.546;9.896;2022-11-15T07:34:43;5.97;;;4.35;;
1402;SDS011;696;48.546;9.896;2022-11-15T07:37:10;11.27;;;4.35;;
1402;SDS011;696;48.546;9.896;2022-11-15T07:39:36;9.90;;;4.63;;
1402;SDS011;696;48.546;9.896;2022-11-15T07:42:01;10.82;;;5.30;;
1402;SDS011;696;48.546;9.896;2022-11-15T07:44:45;7.95;;;4.57;;
1402;SDS011;696;48.546;9.896;2022-11-15T07:47:10;7.32;;;5.35;;
1402;SDS011;696;48.546;9.896;2022-11-15T07:49:35;6.82;;;4.68;;
1402;SDS011;696;48.546;9.896;2022-11-15T07:52:01;11.50;;;6.03;;
1402;SDS011;696;48.546;9.896;2022-11-15T07:54:26;9.95;;;6.22;;
1402;SDS011;696;48.546;9.896;2022-11-15T07:56:51;10.02;;;6.38;;
1402;SDS011;696;48.546;9.896;2022-11-15T07:59:17;10.50;;;6.32;;
1402;SDS011;696;48.546;9.896;2022-11-15T08:01:42;8.05;;;5.20;;
1402;SDS011;696;48.546;9.896;2022-11-15T08:04:09;8.18;;;5.47;;
1402;SDS011;696;48.546;9.896;2022-11-15T08:06:36;8.27;;;4.93;;
1402;SDS011;696;48.546;9.896;2022-11-15T08:09:01;8.20;;;5.50;;
1402;SDS011;696;48.546;9.896;2022-11-15T08:11:26;8.35;;;6.18;;
1402;SDS011;696;48.546;9.896;2022-11-15T08:13:52;9.43;;;6.60;;
1402;SDS011;696;48.546;9.896;2022-11-15T08:16:17;12.52;;;6.47;;
1402;SDS011;696;48.546;9.896;2022-11-15T08:18:42;8.52;;;5.82;;
1402;SDS011;696;48.546;9.896;2022-11-15T08:21:08;11.48;;;6.40;;
1402;SDS011;696;48.546;9.896;2022-11-15T08:23:34;22.90;;;8.15;;
1402;SDS011;696;48.546;9.896;2022-11-15T08:26:00;14.02;;;7.50;;
1402;SDS011;696;48.546;9.896;2022-11-15T08:28:27;13.07;;;7.38;;
1402;SDS011;696;48.546;9.896;2022-11-15T08:30:53;11.90;;;6.40;;
1402;SDS011;696;48.546;9.896;2022-11-15T08:33:18;15.13;;;6.63;;
1402;SDS011;696;48.546;9.896;2022-11-15T08:35:44;11.48;;;7.40;;
1402;SDS011;696;48.546;9.896;2022-11-15T08:38:09;14.27;;;7.70;;
1402;SDS011;696;48.546;9.896;2022-11-15T08:40:35;11.68;;;7.85;;
1402;SDS011;696;48.546;9.896;2022-11-15T08:43:00;13.48;;;7.72;;
1402;SDS011;696;48.546;9.896;2022-11-15T08:45:27;15.43;;;9.60;;
1402;SDS011;696;48.546;9.896;2022-11-15T08:47:55;13.65;;;9.80;;
1402;SDS011;696;48.546;9.896;2022-11-15T08:50:21;15.48;;;9.85;;
1402;SDS011;696;48.546;9.896;2022-11-15T08:52:47;11.60;;;8.10;;
1402;SDS011;696;48.546;9.896;2022-11-15T08:55:15;13.27;;;8.93;;
1402;SDS011;696;48.546;9.896;2022-11-15T08:57:40;19.27;;;9.85;;
1402;SDS011;696;48.546;9.896;2022-11-15T09:00:06;23.00;;;10.90;;
1402;SDS011;696;48.546;9.896;2022-11-15T09:02:31;23.30;;;13.32;;
1402;SDS011;696;48.546;9.896;2022-11-15T09:04:57;22.90;;;12.88;;
1402;SDS011;696;48.546;9.896;2022-11-15T09:07:22;19.48;;;12.85;;
1402;SDS011;696;48.546;9.896;2022-11-15T09:09:47;22.20;;;13.85;;
1402;SDS011;696;48.546;9.896;2022-11-15T09:12:13;22.95;;;12.85;;
1402;SDS011;696;48.546;9.896;2022-11-15T09:14:38;22.15;;;13.45;;
1402;SDS011;696;48.546;9.896;2022-11-15T09:17:06;19.88;;;13.95;;
1402;SDS011;696;48.546;9.896;2022-11-15T09:19:33;33.53;;;14.23;;
1402;SDS011;696;48.546;9.896;2022-11-15T09:21:58;20.90;;;13.75;;
1402;SDS011;696;48.546;9.896;2022-11-15T09:24:24;23.92;;;13.77;;
1402;SDS011;696;48.546;9.896;2022-11-15T09:26:50;22.33;;;13.35;;
1402;SDS011;696;48.546;9.896;2022-11-15T09:29:16;21.15;;;12.85;;
1402;SDS011;696;48.546;9.896;2022-11-15T09:31:42;22.40;;;12.50;;
1402;SDS011;696;48.546;9.896;2022-11-15T09:34:08;17.80;;;12.15;;
1402;SDS011;696;48.546;9.896;2022-11-15T09:36:33;18.98;;;12.23;;
1402;SDS011;696;48.546;9.896;2022-11-15T09:38:59;17.90;;;11.73;;
1402;SDS011;696;48.546;9.896;2022-11-15T09:44:59;12.63;;;8.45;;
1402;SDS011;696;48.546;9.896;2022-11-15T09:50:31;12.85;;;7.45;;
1402;SDS011;696;48.546;9.896;2022-11-15T09:52:59;13.20;;;7.90;;
1402;SDS011;696;48.546;9.896;2022-11-15T09:55:28;13.02;;;7.75;;
1402;SDS011;696;48.546;9.896;2022-11-15T09:58:01;14.35;;;8.90;;
1402;SDS011;696;48.546;9.896;2022-11-15T10:00:35;13.35;;;7.50;;
1402;SDS011;696;48.546;9.896;2022-11-15T10:05:40;10.20;;;7.68;;
1402;SDS011;696;48.546;9.896;2022-11-15T10:08:20;14.60;;;9.13;;
1402;SDS011;696;48.546;9.896;2022-11-15T10:11:00;12.07;;;8.35;;
1402;SDS011;696;48.546;9.896;2022-11-15T10:13:31;12.57;;;8.50;;
1402;SDS011;696;48.546;9.896;2022-11-15T10:16:04;9.82;;;7.32;;
1402;SDS011;696;48.546;9.896;2022-11-15T10:27:08;12.88;;;5.45;;
1402;SDS011;696;48.546;9.896;2022-11-15T10:29:36;10.57;;;6.47;;
1402;SDS011;696;48.546;9.896;2022-11-15T10:32:01;7.53;;;5.85;;
1402;SDS011;696;48.546;9.896;2022-11-15T10:34:26;10.00;;;5.43;;
1402;SDS011;696;48.546;9.896;2022-11-15T10:36:59;9.68;;;6.25;;
1402;SDS011;696;48.546;9.896;2022-11-15T10:39:26;10.38;;;5.97;;
1402;SDS011;696;48.546;9.896;2022-11-15T10:41:52;9.00;;;5.25;;
1402;SDS011;696;48.546;9.896;2022-11-15T10:44:22;5.18;;;4.68;;
1402;SDS011;696;48.546;9.896;2022-11-15T10:51:49;10.13;;;5.70;;
1402;SDS011;696;48.546;9.896;2022-11-15T10:56:53;7.47;;;5.32;;
1402;SDS011;696;48.546;9.896;2022-11-15T10:59:24;9.20;;;5.28;;
1402;SDS011;696;48.546;9.896;2022-11-15T11:01:52;9.32;;;5.03;;
1402;SDS011;696;48.546;9.896;2022-11-15T11:04:17;6.75;;;5.03;;
1402;SDS011;696;48.546;9.896;2022-11-15T11:09:25;8.77;;;4.97;;
1402;SDS011;696;48.546;9.896;2022-11-15T11:11:52;8.68;;;5.00;;
1402;SDS011;696;48.546;9.896;2022-11-15T11:14:27;15.23;;;5.03;;
1402;SDS011;696;48.546;9.896;2022-11-15T11:19:37;7.10;;;5.10;;
1402;SDS011;696;48.546;9.896;2022-11-15T11:22:29;9.82;;;6.20;;
1402;SDS011;696;48.546;9.896;2022-11-15T11:25:01;6.60;;;4.53;;
1402;SDS011;696;48.546;9.896;2022-11-15T11:30:23;6.50;;;4.33;;
1402;SDS011;696;48.546;9.896;2022-11-15T11:33:14;7.90;;;4.43;;
1402;SDS011;696;48.546;9.896;2022-11-15T11:41:42;6.05;;;3.55;;
1402;SDS011;696;48.546;9.896;2022-11-15T11:44:26;6.60;;;4.28;;
1402;SDS011;696;48.546;9.896;2022-11-15T11:47:09;6.20;;;3.83;;
1402;SDS011;696;48.546;9.896;2022-11-15T11:49:39;5.25;;;4.38;;
1402;SDS011;696;48.546;9.896;2022-11-15T11:52:22;4.55;;;3.95;;
1402;SDS011;696;48.546;9.896;2022-11-15T11:55:53;5.22;;;3.78;;
1402;SDS011;696;48.546;9.896;2022-11-15T12:01:31;5.80;;;4.18;;
1402;SDS011;696;48.546;9.896;2022-11-15T12:03:46;4.43;;;3.58;;
1402;SDS011;696;48.546;9.896;2022-11-15T12:06:26;4.45;;;2.95;;
1402;SDS011;696;48.546;9.896;2022-11-15T12:11:29;6.68;;;3.47;;
1402;SDS011;696;48.546;9.896;2022-11-15T12:14:01;3.85;;;3.45;;
1402;SDS011;696;48.546;9.896;2022-11-15T12:16:30;6.88;;;3.65;;
1402;SDS011;696;48.546;9.896;2022-11-15T12:18:59;4.80;;;3.08;;
1402;SDS011;696;48.546;9.896;2022-11-15T12:24:24;5.10;;;3.20;;
1402;SDS011;696;48.546;9.896;2022-11-15T12:26:53;5.80;;;3.38;;
1402;SDS011;696;48.546;9.896;2022-11-15T12:29:27;4.55;;;3.28;;
1402;SDS011;696;48.546;9.896;2022-11-15T12:31:56;7.15;;;3.45;;
1402;SDS011;696;48.546;9.896;2022-11-15T12:36:53;6.20;;;3.33;;
1402;SDS011;696;48.546;9.896;2022-11-15T12:39:18;5.85;;;3.30;;
1402;SDS011;696;48.546;9.896;2022-11-15T12:54:48;5.68;;;3.15;;
1402;SDS011;696;48.546;9.896;2022-11-15T13:02:24;2.80;;;2.28;;
1402;SDS011;696;48.546;9.896;2022-11-15T13:04:52;4.20;;;2.15;;
1402;SDS011;696;48.546;9.896;2022-11-15T13:09:59;2.78;;;2.47;;
1402;SDS011;696;48.546;9.896;2022-11-15T13:14:51;3.77;;;2.73;;
1402;SDS011;696;48.546;9.896;2022-11-15T13:19:48;12.80;;;3.35;;
1402;SDS011;696;48.546;9.896;2022-11-15T13:22:17;4.00;;;3.03;;
1402;SDS011;696;48.546;9.896;2022-11-15T13:25:01;4.28;;;3.17;;
1402;SDS011;696;48.546;9.896;2022-11-15T13:27:27;6.18;;;3.42;;
1402;SDS011;696;48.546;9.896;2022-11-15T13:29:52;4.95;;;3.17;;
1402;SDS011;696;48.546;9.896;2022-11-15T13:32:18;4.15;;;3.17;;
1402;SDS011;696;48.546;9.896;2022-11-15T13:34:47;4.75;;;3.70;;
1402;SDS011;696;48.546;9.896;2022-11-15T13:39:53;6.57;;;4.50;;
1402;SDS011;696;48.546;9.896;2022-11-15T13:42:20;6.05;;;3.97;;
1402;SDS011;696;48.546;9.896;2022-11-15T13:44:58;5.38;;;4.28;;
1402;SDS011;696;48.546;9.896;2022-11-15T13:47:26;5.57;;;4.05;;
1402;SDS011;696;48.546;9.896;2022-11-15T13:49:52;7.00;;;4.15;;
1402;SDS011;696;48.546;9.896;2022-11-15T13:52:17;13.63;;;7.32;;
1402;SDS011;696;48.546;9.896;2022-11-15T13:55:02;7.40;;;5.45;;
1402;SDS011;696;48.546;9.896;2022-11-15T13:57:35;5.22;;;3.67;;
1402;SDS011;696;48.546;9.896;2022-11-15T14:00:04;5.50;;;3.95;;
1402;SDS011;696;48.546;9.896;2022-11-15T14:02:32;6.85;;;4.07;;
1402;SDS011;696;48.546;9.896;2022-11-15T14:05:02;8.63;;;4.30;;
1402;SDS011;696;48.546;9.896;2022-11-15T14:07:52;5.53;;;4.13;;
1402;SDS011;696;48.546;9.896;2022-11-15T14:10:32;7.03;;;4.07;;
1402;SDS011;696;48.546;9.896;2022-11-15T14:12:58;6.70;;;4.50;;
1402;SDS011;696;48.546;9.896;2022-11-15T14:17:57;9.10;;;5.27;;
1402;SDS011;696;48.546;9.896;2022-11-15T14:20:27;8.00;;;4.05;;
1402;SDS011;696;48.546;9.896;2022-11-15T14:23:06;8.10;;;4.13;;
1402;SDS011;696;48.546;9.896;2022-11-15T14:25:51;7.18;;;4.38;;
1402;SDS011;696;48.546;9.896;2022-11-15T14:33:27;7.63;;;5.78;;
1402;SDS011;696;48.546;9.896;2022-11-15T14:35:55;12.13;;;7.30;;
1402;SDS011;696;48.546;9.896;2022-11-15T14:38:22;14.43;;;8.38;;
1402;SDS011;696;48.546;9.896;2022-11-15T14:40:48;12.57;;;8.23;;
1402;SDS011;696;48.546;9.896;2022-11-15T14:43:14;15.50;;;7.30;;
1402;SDS011;696;48.546;9.896;2022-11-15T14:45:39;13.65;;;7.55;;
1402;SDS011;696;48.546;9.896;2022-11-15T14:48:05;13.07;;;8.10;;
1402;SDS011;696;48.546;9.896;2022-11-15T14:50:31;12.88;;;7.90;;
1402;SDS011;696;48.546;9.896;2022-11-15T14:52:57;21.17;;;8.68;;
1402;SDS011;696;48.546;9.896;2022-11-15T14:55:26;18.80;;;8.90;;
1402;SDS011;696;48.546;9.896;2022-11-15T14:57:53;14.45;;;8.07;;
1402;SDS011;696;48.546;9.896;2022-11-15T15:00:19;12.75;;;7.45;;
1402;SDS011;696;48.546;9.896;2022-11-15T15:02:45;13.88;;;8.52;;
1402;SDS011;696;48.546;9.896;2022-11-15T15:05:16;12.63;;;8.95;;
1402;SDS011;696;48.546;9.896;2022-11-15T15:07:43;16.38;;;9.77;;
1402;SDS011;696;48.546;9.896;2022-11-15T15:10:08;15.98;;;10.07;;
1402;SDS011;696;48.546;9.896;2022-11-15T15:12:34;15.65;;;9.40;;
1402;SDS011;696;48.546;9.896;2022-11-15T15:14:59;14.05;;;8.68;;
1402;SDS011;696;48.546;9.896;2022-11-15T15:17:25;12.05;;;7.85;;
1402;SDS011;696;48.546;9.896;2022-11-15T15:19:50;15.60;;;9.02;;
1402;SDS011;696;48.546;9.896;2022-11-15T15:22:16;17.00;;;8.68;;
1402;SDS011;696;48.546;9.896;2022-11-15T15:24:44;14.90;;;8.07;;
1402;SDS011;696;48.546;9.896;2022-11-15T15:27:12;19.05;;;7.88;;
1402;SDS011;696;48.546;9.896;2022-11-15T15:29:38;11.93;;;8.60;;
1402;SDS011;696;48.546;9.896;2022-11-15T15:32:04;11.32;;;7.20;;
1402;SDS011;696;48.546;9.896;2022-11-15T15:34:30;12.30;;;8.60;;
1402;SDS011;696;48.546;9.896;2022-11-15T15:39:48;14.00;;;7.75;;
1402;SDS011;696;48.546;9.896;2022-11-15T15:42:13;13.10;;;8.65;;
1402;SDS011;696;48.546;9.896;2022-11-15T15:44:38;18.95;;;8.55;;
1402;SDS011;696;48.546;9.896;2022-11-15T15:47:10;12.43;;;8.23;;
1402;SDS011;696;48.546;9.896;2022-11-15T15:49:48;15.50;;;9.07;;
1402;SDS011;696;48.546;9.896;2022-11-15T15:52:14;14.90;;;9.52;;
1402;SDS011;696;48.546;9.896;2022-11-15T15:54:39;15.32;;;8.88;;
1402;SDS011;696;48.546;9.896;2022-11-15T15:57:05;14.85;;;8.65;;
1402;SDS011;696;48.546;9.896;2022-11-15T15:59:31;15.40;;;8.63;;
1402;SDS011;696;48.546;9.896;2022-11-15T16:02:00;14.82;;;9.82;;
1402;SDS011;696;48.546;9.896;2022-11-15T16:04:25;18.60;;;9.48;;
1402;SDS011;696;48.546;9.896;2022-11-15T16:06:51;15.80;;;9.85;;
1402;SDS011;696;48.546;9.896;2022-11-15T16:09:19;15.57;;;9.23;;
1402;SDS011;696;48.546;9.896;2022-11-15T16:12:07;15.88;;;9.00;;
1402;SDS011;696;48.546;9.896;2022-11-15T16:14:33;19.65;;;9.65;;
1402;SDS011;696;48.546;9.896;2022-11-15T16:16:58;16.42;;;9.35;;
1402;SDS011;696;48.546;9.896;2022-11-15T16:19:23;21.40;;;9.63;;
1402;SDS011;696;48.546;9.896;2022-11-15T16:21:49;15.88;;;8.93;;
1402;SDS011;696;48.546;9.896;2022-11-15T16:24:16;12.85;;;8.88;;
1402;SDS011;696;48.546;9.896;2022-11-15T16:26:42;21.20;;;9.70;;
1402;SDS011;696;48.546;9.896;2022-11-15T16:29:08;19.73;;;10.30;;
1402;SDS011;696;48.546;9.896;2022-11-15T16:31:35;16.38;;;10.00;;
1402;SDS011;696;48.546;9.896;2022-11-15T16:34:00;16.40;;;10.57;;
1402;SDS011;696;48.546;9.896;2022-11-15T16:36:26;13.38;;;8.90;;
1402;SDS011;696;48.546;9.896;2022-11-15T16:38:51;18.10;;;9.65;;
1402;SDS011;696;48.546;9.896;2022-11-15T16:41:17;17.17;;;9.05;;
1402;SDS011;696;48.546;9.896;2022-11-15T16:43:49;15.48;;;9.13;;
1402;SDS011;696;48.546;9.896;2022-11-15T16:46:19;14.18;;;9.00;;
1402;SDS011;696;48.546;9.896;2022-11-15T16:48:46;14.38;;;8.75;;
1402;SDS011;696;48.546;9.896;2022-11-15T16:51:12;14.93;;;8.50;;
1402;SDS011;696;48.546;9.896;2022-11-15T16:53:38;13.95;;;8.30;;
1402;SDS011;696;48.546;9.896;2022-11-15T16:56:04;18.63;;;8.57;;
1402;SDS011;696;48.546;9.896;2022-11-15T16:58:50;12.20;;;7.95;;
1402;SDS011;696;48.546;9.896;2022-11-15T17:01:17;12.82;;;8.23;;
1402;SDS011;696;48.546;9.896;2022-11-15T17:03:44;13.43;;;7.88;;
1402;SDS011;696;48.546;9.896;2022-11-15T17:06:09;10.93;;;7.80;;
1402;SDS011;696;48.546;9.896;2022-11-15T17:08:36;11.13;;;7.78;;
1402;SDS011;696;48.546;9.896;2022-11-15T17:11:04;13.82;;;8.63;;
1402;SDS011;696;48.546;9.896;2022-11-15T17:13:30;13.73;;;8.30;;
1402;SDS011;696;48.546;9.896;2022-11-15T17:16:04;14.50;;;8.65;;
1402;SDS011;696;48.546;9.896;2022-11-15T17:18:34;15.20;;;8.60;;
1402;SDS011;696;48.546;9.896;2022-11-15T17:21:04;11.55;;;7.88;;
1402;SDS011;696;48.546;9.896;2022-11-15T17:26:35;14.38;;;8.23;;
1402;SDS011;696;48.546;9.896;2022-11-15T17:29:01;16.38;;;8.85;;
1402;SDS011;696;48.546;9.896;2022-11-15T17:31:30;12.50;;;8.55;;
1402;SDS011;696;48.546;9.896;2022-11-15T17:33:57;12.90;;;7.60;;
1402;SDS011;696;48.546;9.896;2022-11-15T17:36:23;15.00;;;9.38;;
1402;SDS011;696;48.546;9.896;2022-11-15T17:38:48;15.05;;;9.45;;
1402;SDS011;696;48.546;9.896;2022-11-15T17:41:17;18.35;;;9.32;;
1402;SDS011;696;48.546;9.896;2022-11-15T17:43:42;16.73;;;9.15;;
1402;SDS011;696;48.546;9.896;2022-11-15T17:46:12;18.90;;;9.45;;